sensor_id;sensor_type;location;lat;lon;timestamp;temperature;humidity
30371;DHT22;17164;48.590;11.410;2023-06-22T00:01:53;18.50;99.90
30371;DHT22;17164;48.590;11.410;2023-06-22T00:04:18;18.50;99.90
30371;DHT22;17164;48.590;11.410;2023-06-22T00:06:44;18.50;99.90
30371;DHT22;17164;48.590;11.410;2023-06-22T00:09:10;18.50;99.90
30371;DHT22;17164;48.590;11.410;2023-06-22T00:11:36;18.50;99.90
30371;DHT22;17164;48.590;11.410;2023-06-22T00:14:03;18.50;99.90
30371;DHT22;17164;48.590;11.410;2023-06-22T00:16:29;18.50;99.90
30371;DHT22;17164;48.590;11.410;2023-06-22T00:18:54;18.50;99.90
30371;DHT22;17164;48.590;11.410;2023-06-22T00:21:20;18.50;99.90
30371;DHT22;17164;48.590;11.410;2023-06-22T00:23:46;18.50;99.90
30371;DHT22;17164;48.590;11.410;2023-06-22T00:26:13;18.40;99.90
30371;DHT22;17164;48.590;11.410;2023-06-22T00:28:39;18.40;99.90
30371;DHT22;17164;48.590;11.410;2023-06-22T00:31:04;18.40;99.90
30371;DHT22;17164;48.590;11.410;2023-06-22T00:33:30;18.30;99.90
30371;DHT22;17164;48.590;11.410;2023-06-22T00:35:57;18.30;99.90
30371;DHT22;17164;48.590;11.410;2023-06-22T00:38:22;18.30;99.90
30371;DHT22;17164;48.590;11.410;2023-06-22T00:40:48;18.30;99.90
30371;DHT22;17164;48.590;11.410;2023-06-22T00:43:14;18.30;99.90
30371;DHT22;17164;48.590;11.410;2023-06-22T00:45:39;18.30;99.90
30371;DHT22;17164;48.590;11.410;2023-06-22T00:48:06;18.40;99.90
30371;DHT22;17164;48.590;11.410;2023-06-22T00:50:33;18.40;99.90
30371;DHT22;17164;48.590;11.410;2023-06-22T00:53:07;18.40;99.90
30371;DHT22;17164;48.590;11.410;2023-06-22T00:55:39;18.40;99.90
30371;DHT22;17164;48.590;11.410;2023-06-22T00:58:08;18.50;99.90
30371;DHT22;17164;48.590;11.410;2023-06-22T01:00:36;18.50;99.90
30371;DHT22;17164;48.590;11.410;2023-06-22T01:03:03;18.50;99.90
30371;DHT22;17164;48.590;11.410;2023-06-22T01:05:29;18.50;99.90
30371;DHT22;17164;48.590;11.410;2023-06-22T01:16:10;18.40;99.90
30371;DHT22;17164;48.590;11.410;2023-06-22T01:18:40;18.40;99.90
30371;DHT22;17164;48.590;11.410;2023-06-22T01:21:08;18.40;99.90
30371;DHT22;17164;48.590;11.410;2023-06-22T01:26:38;18.40;99.90
30371;DHT22;17164;48.590;11.410;2023-06-22T01:29:06;18.40;99.90
30371;DHT22;17164;48.590;11.410;2023-06-22T01:31:34;18.40;99.90
30371;DHT22;17164;48.590;11.410;2023-06-22T01:34:03;18.40;99.90
30371;DHT22;17164;48.590;11.410;2023-06-22T01:36:31;18.40;99.90
30371;DHT22;17164;48.590;11.410;2023-06-22T01:38:57;18.30;99.90
30371;DHT22;17164;48.590;11.410;2023-06-22T01:41:26;18.30;99.90
30371;DHT22;17164;48.590;11.410;2023-06-22T01:43:53;18.20;99.90
30371;DHT22;17164;48.590;11.410;2023-06-22T01:46:20;18.10;99.90
30371;DHT22;17164;48.590;11.410;2023-06-22T01:48:46;18.10;99.90
30371;DHT22;17164;48.590;11.410;2023-06-22T01:51:12;18.00;99.90
30371;DHT22;17164;48.590;11.410;2023-06-22T01:53:38;18.00;99.90
30371;DHT22;17164;48.590;11.410;2023-06-22T01:56:04;18.00;99.90
30371;DHT22;17164;48.590;11.410;2023-06-22T01:58:31;18.00;99.90
30371;DHT22;17164;48.590;11.410;2023-06-22T02:01:20;18.00;99.90
30371;DHT22;17164;48.590;11.410;2023-06-22T02:06:56;18.00;99.90
30371;DHT22;17164;48.590;11.410;2023-06-22T02:09:23;18.00;99.90
30371;DHT22;17164;48.590;11.410;2023-06-22T02:11:52;18.00;99.90
30371;DHT22;17164;48.590;11.410;2023-06-22T02:14:21;18.00;99.90
30371;DHT22;17164;48.590;11.410;2023-06-22T02:16:47;18.00;99.90
30371;DHT22;17164;48.590;11.410;2023-06-22T02:19:13;18.00;99.90
30371;DHT22;17164;48.590;11.410;2023-06-22T02:21:44;18.00;99.90
30371;DHT22;17164;48.590;11.410;2023-06-22T02:24:10;18.00;99.90
30371;DHT22;17164;48.590;11.410;2023-06-22T02:26:36;18.00;99.90
30371;DHT22;17164;48.590;11.410;2023-06-22T02:29:03;18.00;99.90
30371;DHT22;17164;48.590;11.410;2023-06-22T02:31:29;18.10;99.90
30371;DHT22;17164;48.590;11.410;2023-06-22T02:33:59;18.10;99.90
30371;DHT22;17164;48.590;11.410;2023-06-22T02:36:25;18.00;99.90
30371;DHT22;17164;48.590;11.410;2023-06-22T02:38:53;18.00;99.90
30371;DHT22;17164;48.590;11.410;2023-06-22T02:41:19;18.00;99.90
30371;DHT22;17164;48.590;11.410;2023-06-22T02:43:46;18.00;99.90
30371;DHT22;17164;48.590;11.410;2023-06-22T02:46:12;18.00;99.90
30371;DHT22;17164;48.590;11.410;2023-06-22T02:48:42;17.90;99.90
30371;DHT22;17164;48.590;11.410;2023-06-22T02:51:07;17.80;99.90
30371;DHT22;17164;48.590;11.410;2023-06-22T02:53:33;17.80;99.90
30371;DHT22;17164;48.590;11.410;2023-06-22T02:55:59;17.80;99.90
30371;DHT22;17164;48.590;11.410;2023-06-22T02:58:27;17.80;99.90
30371;DHT22;17164;48.590;11.410;2023-06-22T03:00:52;17.80;99.90
30371;DHT22;17164;48.590;11.410;2023-06-22T03:03:19;17.70;99.90
30371;DHT22;17164;48.590;11.410;2023-06-22T03:05:45;17.80;99.90
30371;DHT22;17164;48.590;11.410;2023-06-22T03:08:10;17.70;99.90
30371;DHT22;17164;48.590;11.410;2023-06-22T03:10:36;17.70;99.90
30371;DHT22;17164;48.590;11.410;2023-06-22T03:13:02;17.60;99.90
30371;DHT22;17164;48.590;11.410;2023-06-22T03:15:27;17.60;99.90
30371;DHT22;17164;48.590;11.410;2023-06-22T03:17:54;17.60;99.90
30371;DHT22;17164;48.590;11.410;2023-06-22T03:20:20;17.60;99.90
30371;DHT22;17164;48.590;11.410;2023-06-22T03:22:46;17.60;99.90
30371;DHT22;17164;48.590;11.410;2023-06-22T03:25:12;17.60;99.90
30371;DHT22;17164;48.590;11.410;2023-06-22T03:27:43;17.60;99.90
30371;DHT22;17164;48.590;11.410;2023-06-22T03:30:12;17.60;99.90
30371;DHT22;17164;48.590;11.410;2023-06-22T03:32:38;17.70;99.90
30371;DHT22;17164;48.590;11.410;2023-06-22T03:35:04;17.60;99.90
30371;DHT22;17164;48.590;11.410;2023-06-22T03:37:31;17.60;99.90
30371;DHT22;17164;48.590;11.410;2023-06-22T03:39:57;17.70;99.90
30371;DHT22;17164;48.590;11.410;2023-06-22T03:42:22;17.70;99.90
30371;DHT22;17164;48.590;11.410;2023-06-22T03:44:48;17.70;99.90
30371;DHT22;17164;48.590;11.410;2023-06-22T03:47:14;17.70;99.90
30371;DHT22;17164;48.590;11.410;2023-06-22T03:49:39;17.70;99.90
30371;DHT22;17164;48.590;11.410;2023-06-22T03:52:05;17.70;99.90
30371;DHT22;17164;48.590;11.410;2023-06-22T03:54:31;17.70;99.90
30371;DHT22;17164;48.590;11.410;2023-06-22T03:56:57;17.70;99.90
30371;DHT22;17164;48.590;11.410;2023-06-22T03:59:23;17.70;99.90
30371;DHT22;17164;48.590;11.410;2023-06-22T04:01:49;17.70;99.90
30371;DHT22;17164;48.590;11.410;2023-06-22T04:04:16;17.70;99.90
30371;DHT22;17164;48.590;11.410;2023-06-22T04:06:42;17.70;99.90
30371;DHT22;17164;48.590;11.410;2023-06-22T04:09:08;17.70;99.90
30371;DHT22;17164;48.590;11.410;2023-06-22T04:11:34;17.70;99.90
30371;DHT22;17164;48.590;11.410;2023-06-22T04:13:59;17.70;99.90
30371;DHT22;17164;48.590;11.410;2023-06-22T04:16:25;17.80;99.90
30371;DHT22;17164;48.590;11.410;2023-06-22T04:18:51;17.70;99.90
30371;DHT22;17164;48.590;11.410;2023-06-22T04:21:16;17.80;99.90
30371;DHT22;17164;48.590;11.410;2023-06-22T04:23:42;17.80;99.90
30371;DHT22;17164;48.590;11.410;2023-06-22T04:26:08;17.80;99.90
30371;DHT22;17164;48.590;11.410;2023-06-22T04:28:34;17.90;99.90
30371;DHT22;17164;48.590;11.410;2023-06-22T04:31:03;17.90;99.90
30371;DHT22;17164;48.590;11.410;2023-06-22T04:33:30;17.90;99.90
30371;DHT22;17164;48.590;11.410;2023-06-22T04:35:55;17.90;99.90
30371;DHT22;17164;48.590;11.410;2023-06-22T04:38:24;17.90;99.90
30371;DHT22;17164;48.590;11.410;2023-06-22T04:40:50;18.00;99.90
30371;DHT22;17164;48.590;11.410;2023-06-22T04:43:16;18.10;99.90
30371;DHT22;17164;48.590;11.410;2023-06-22T04:45:42;18.10;99.90
30371;DHT22;17164;48.590;11.410;2023-06-22T04:48:07;18.20;99.90
30371;DHT22;17164;48.590;11.410;2023-06-22T04:50:37;18.20;99.90
30371;DHT22;17164;48.590;11.410;2023-06-22T04:53:04;18.30;99.90
30371;DHT22;17164;48.590;11.410;2023-06-22T04:55:31;18.40;99.90
30371;DHT22;17164;48.590;11.410;2023-06-22T04:57:57;18.40;99.90
30371;DHT22;17164;48.590;11.410;2023-06-22T05:00:30;18.50;99.90
30371;DHT22;17164;48.590;11.410;2023-06-22T05:02:56;18.50;99.90
30371;DHT22;17164;48.590;11.410;2023-06-22T05:05:23;18.50;99.90
30371;DHT22;17164;48.590;11.410;2023-06-22T05:07:51;18.60;99.90
30371;DHT22;17164;48.590;11.410;2023-06-22T05:10:19;18.60;99.90
30371;DHT22;17164;48.590;11.410;2023-06-22T05:12:45;18.70;99.90
30371;DHT22;17164;48.590;11.410;2023-06-22T05:15:11;18.70;99.90
30371;DHT22;17164;48.590;11.410;2023-06-22T05:17:37;18.70;99.90
30371;DHT22;17164;48.590;11.410;2023-06-22T05:20:09;18.70;99.90
30371;DHT22;17164;48.590;11.410;2023-06-22T05:22:35;18.80;99.90
30371;DHT22;17164;48.590;11.410;2023-06-22T05:25:01;18.90;99.90
30371;DHT22;17164;48.590;11.410;2023-06-22T05:27:26;18.90;99.90
30371;DHT22;17164;48.590;11.410;2023-06-22T05:29:52;19.00;99.90
30371;DHT22;17164;48.590;11.410;2023-06-22T05:32:17;19.10;99.90
30371;DHT22;17164;48.590;11.410;2023-06-22T05:34:44;19.10;99.90
30371;DHT22;17164;48.590;11.410;2023-06-22T05:37:09;19.20;99.90
30371;DHT22;17164;48.590;11.410;2023-06-22T05:39:35;19.20;99.90
30371;DHT22;17164;48.590;11.410;2023-06-22T05:42:07;19.30;99.90
30371;DHT22;17164;48.590;11.410;2023-06-22T05:44:33;19.30;99.90
30371;DHT22;17164;48.590;11.410;2023-06-22T05:46:59;19.40;99.90
30371;DHT22;17164;48.590;11.410;2023-06-22T05:49:25;19.50;99.90
30371;DHT22;17164;48.590;11.410;2023-06-22T05:51:55;19.50;99.90
30371;DHT22;17164;48.590;11.410;2023-06-22T05:54:21;19.60;99.90
30371;DHT22;17164;48.590;11.410;2023-06-22T05:56:47;19.60;99.90
30371;DHT22;17164;48.590;11.410;2023-06-22T05:59:12;19.80;99.90
30371;DHT22;17164;48.590;11.410;2023-06-22T06:01:38;19.80;99.90
30371;DHT22;17164;48.590;11.410;2023-06-22T06:04:05;19.90;99.90
30371;DHT22;17164;48.590;11.410;2023-06-22T06:06:33;20.00;99.90
30371;DHT22;17164;48.590;11.410;2023-06-22T06:09:00;20.10;99.90
30371;DHT22;17164;48.590;11.410;2023-06-22T06:11:26;20.10;99.90
30371;DHT22;17164;48.590;11.410;2023-06-22T06:13:52;20.20;99.90
30371;DHT22;17164;48.590;11.410;2023-06-22T06:16:17;20.30;99.90
30371;DHT22;17164;48.590;11.410;2023-06-22T06:18:43;20.40;99.90
30371;DHT22;17164;48.590;11.410;2023-06-22T06:21:09;20.40;99.90
30371;DHT22;17164;48.590;11.410;2023-06-22T06:23:34;20.50;99.90
30371;DHT22;17164;48.590;11.410;2023-06-22T06:26:00;20.60;99.90
30371;DHT22;17164;48.590;11.410;2023-06-22T06:28:26;20.70;99.90
30371;DHT22;17164;48.590;11.410;2023-06-22T06:30:52;20.80;99.90
30371;DHT22;17164;48.590;11.410;2023-06-22T06:33:18;20.90;99.90
30371;DHT22;17164;48.590;11.410;2023-06-22T06:35:46;21.00;99.90
30371;DHT22;17164;48.590;11.410;2023-06-22T06:38:11;21.20;99.90
30371;DHT22;17164;48.590;11.410;2023-06-22T06:40:37;21.30;99.90
30371;DHT22;17164;48.590;11.410;2023-06-22T06:43:02;21.40;99.90
30371;DHT22;17164;48.590;11.410;2023-06-22T06:45:28;21.60;99.90
30371;DHT22;17164;48.590;11.410;2023-06-22T06:47:56;21.70;99.90
30371;DHT22;17164;48.590;11.410;2023-06-22T06:50:22;21.90;99.90
30371;DHT22;17164;48.590;11.410;2023-06-22T06:52:47;22.00;99.90
30371;DHT22;17164;48.590;11.410;2023-06-22T06:55:15;22.20;99.90
30371;DHT22;17164;48.590;11.410;2023-06-22T06:57:42;22.30;99.90
30371;DHT22;17164;48.590;11.410;2023-06-22T07:00:09;22.40;99.90
30371;DHT22;17164;48.590;11.410;2023-06-22T07:02:41;22.60;99.90
30371;DHT22;17164;48.590;11.410;2023-06-22T07:05:07;22.70;99.90
30371;DHT22;17164;48.590;11.410;2023-06-22T07:07:33;22.90;99.90
30371;DHT22;17164;48.590;11.410;2023-06-22T07:10:00;23.00;99.90
30371;DHT22;17164;48.590;11.410;2023-06-22T07:12:25;23.10;99.90
30371;DHT22;17164;48.590;11.410;2023-06-22T07:14:52;23.30;99.90
30371;DHT22;17164;48.590;11.410;2023-06-22T07:17:18;23.40;99.90
30371;DHT22;17164;48.590;11.410;2023-06-22T07:19:43;23.50;99.90
30371;DHT22;17164;48.590;11.410;2023-06-22T07:22:09;23.60;99.90
30371;DHT22;17164;48.590;11.410;2023-06-22T07:24:34;23.80;99.90
30371;DHT22;17164;48.590;11.410;2023-06-22T07:27:00;23.90;99.90
30371;DHT22;17164;48.590;11.410;2023-06-22T07:29:27;24.10;99.90
30371;DHT22;17164;48.590;11.410;2023-06-22T07:31:53;24.20;99.90
30371;DHT22;17164;48.590;11.410;2023-06-22T07:34:19;24.30;99.90
30371;DHT22;17164;48.590;11.410;2023-06-22T07:36:45;24.40;99.90
30371;DHT22;17164;48.590;11.410;2023-06-22T07:39:11;24.50;99.90
30371;DHT22;17164;48.590;11.410;2023-06-22T07:41:39;24.60;99.90
30371;DHT22;17164;48.590;11.410;2023-06-22T07:44:05;24.70;99.90
30371;DHT22;17164;48.590;11.410;2023-06-22T07:46:31;24.80;99.90
30371;DHT22;17164;48.590;11.410;2023-06-22T07:48:57;24.90;99.90
30371;DHT22;17164;48.590;11.410;2023-06-22T07:51:23;25.10;99.90
30371;DHT22;17164;48.590;11.410;2023-06-22T07:53:49;25.20;99.90
30371;DHT22;17164;48.590;11.410;2023-06-22T07:56:15;25.30;99.90
30371;DHT22;17164;48.590;11.410;2023-06-22T07:58:45;25.40;99.90
30371;DHT22;17164;48.590;11.410;2023-06-22T08:01:11;25.50;99.90
30371;DHT22;17164;48.590;11.410;2023-06-22T08:03:37;25.60;99.90
30371;DHT22;17164;48.590;11.410;2023-06-22T08:06:03;25.70;99.90
30371;DHT22;17164;48.590;11.410;2023-06-22T08:08:29;25.80;99.90
30371;DHT22;17164;48.590;11.410;2023-06-22T08:10:54;25.80;99.90
30371;DHT22;17164;48.590;11.410;2023-06-22T08:13:20;25.90;99.90
30371;DHT22;17164;48.590;11.410;2023-06-22T08:15:46;25.90;99.90
30371;DHT22;17164;48.590;11.410;2023-06-22T08:18:11;26.00;99.90
30371;DHT22;17164;48.590;11.410;2023-06-22T08:20:37;26.10;99.90
30371;DHT22;17164;48.590;11.410;2023-06-22T08:23:03;26.20;99.90
30371;DHT22;17164;48.590;11.410;2023-06-22T08:25:35;26.40;99.90
30371;DHT22;17164;48.590;11.410;2023-06-22T08:28:01;26.50;99.90
30371;DHT22;17164;48.590;11.410;2023-06-22T08:30:27;26.70;99.90
30371;DHT22;17164;48.590;11.410;2023-06-22T08:32:53;26.90;99.90
30371;DHT22;17164;48.590;11.410;2023-06-22T08:35:22;27.00;99.90
30371;DHT22;17164;48.590;11.410;2023-06-22T08:37:48;27.20;99.90
30371;DHT22;17164;48.590;11.410;2023-06-22T08:40:18;27.30;99.90
30371;DHT22;17164;48.590;11.410;2023-06-22T08:42:45;27.40;99.90
30371;DHT22;17164;48.590;11.410;2023-06-22T08:45:12;27.60;99.90
30371;DHT22;17164;48.590;11.410;2023-06-22T08:47:38;27.70;99.90
30371;DHT22;17164;48.590;11.410;2023-06-22T08:50:04;27.70;99.50
30371;DHT22;17164;48.590;11.410;2023-06-22T08:52:30;27.90;99.60
30371;DHT22;17164;48.590;11.410;2023-06-22T08:54:56;28.00;99.80
30371;DHT22;17164;48.590;11.410;2023-06-22T08:57:23;28.10;99.40
30371;DHT22;17164;48.590;11.410;2023-06-22T08:59:49;28.20;98.90
30371;DHT22;17164;48.590;11.410;2023-06-22T09:02:14;28.40;98.40
30371;DHT22;17164;48.590;11.410;2023-06-22T09:04:40;28.40;98.00
30371;DHT22;17164;48.590;11.410;2023-06-22T09:07:06;28.60;97.90
30371;DHT22;17164;48.590;11.410;2023-06-22T09:09:32;28.60;95.80
30371;DHT22;17164;48.590;11.410;2023-06-22T09:11:58;28.70;95.60
30371;DHT22;17164;48.590;11.410;2023-06-22T09:14:23;28.80;95.60
30371;DHT22;17164;48.590;11.410;2023-06-22T09:16:49;28.80;95.80
30371;DHT22;17164;48.590;11.410;2023-06-22T09:19:14;28.80;95.60
30371;DHT22;17164;48.590;11.410;2023-06-22T09:21:40;28.90;94.70
30371;DHT22;17164;48.590;11.410;2023-06-22T09:24:06;28.90;94.20
30371;DHT22;17164;48.590;11.410;2023-06-22T09:26:31;28.90;94.30
30371;DHT22;17164;48.590;11.410;2023-06-22T09:28:57;28.90;94.50
30371;DHT22;17164;48.590;11.410;2023-06-22T09:31:23;28.90;94.20
30371;DHT22;17164;48.590;11.410;2023-06-22T09:33:54;29.00;94.10
30371;DHT22;17164;48.590;11.410;2023-06-22T09:36:21;29.00;93.70
30371;DHT22;17164;48.590;11.410;2023-06-22T09:38:47;29.10;93.90
30371;DHT22;17164;48.590;11.410;2023-06-22T09:41:13;29.30;93.20
30371;DHT22;17164;48.590;11.410;2023-06-22T09:43:39;29.40;92.30
30371;DHT22;17164;48.590;11.410;2023-06-22T09:46:04;29.40;92.20
30371;DHT22;17164;48.590;11.410;2023-06-22T09:48:31;29.50;92.40
30371;DHT22;17164;48.590;11.410;2023-06-22T09:50:56;29.60;92.90
30371;DHT22;17164;48.590;11.410;2023-06-22T09:53:22;29.70;92.80
30371;DHT22;17164;48.590;11.410;2023-06-22T09:55:48;29.80;92.40
30371;DHT22;17164;48.590;11.410;2023-06-22T09:58:13;30.00;92.50
30371;DHT22;17164;48.590;11.410;2023-06-22T10:00:39;30.00;90.60
30371;DHT22;17164;48.590;11.410;2023-06-22T10:03:07;30.10;90.30
30371;DHT22;17164;48.590;11.410;2023-06-22T10:05:32;30.20;89.80
30371;DHT22;17164;48.590;11.410;2023-06-22T10:07:58;30.30;90.00
30371;DHT22;17164;48.590;11.410;2023-06-22T10:10:24;30.40;89.60
30371;DHT22;17164;48.590;11.410;2023-06-22T10:12:55;30.40;89.20
30371;DHT22;17164;48.590;11.410;2023-06-22T10:15:22;30.50;90.30
30371;DHT22;17164;48.590;11.410;2023-06-22T10:17:48;30.70;88.80
30371;DHT22;17164;48.590;11.410;2023-06-22T10:20:14;30.70;87.80
30371;DHT22;17164;48.590;11.410;2023-06-22T10:22:41;30.80;88.60
30371;DHT22;17164;48.590;11.410;2023-06-22T10:25:08;30.90;88.20
30371;DHT22;17164;48.590;11.410;2023-06-22T10:27:33;31.00;89.50
30371;DHT22;17164;48.590;11.410;2023-06-22T10:29:59;31.10;89.10
30371;DHT22;17164;48.590;11.410;2023-06-22T10:32:25;31.20;88.90
30371;DHT22;17164;48.590;11.410;2023-06-22T10:34:51;31.30;88.80
30371;DHT22;17164;48.590;11.410;2023-06-22T10:37:16;31.50;87.10
30371;DHT22;17164;48.590;11.410;2023-06-22T10:39:42;31.60;84.60
30371;DHT22;17164;48.590;11.410;2023-06-22T10:42:08;31.70;83.10
30371;DHT22;17164;48.590;11.410;2023-06-22T10:44:33;31.80;81.90
30371;DHT22;17164;48.590;11.410;2023-06-22T10:46:59;31.80;80.70
30371;DHT22;17164;48.590;11.410;2023-06-22T10:49:24;31.90;80.00
30371;DHT22;17164;48.590;11.410;2023-06-22T10:51:50;31.90;80.30
30371;DHT22;17164;48.590;11.410;2023-06-22T10:54:15;32.00;79.70
30371;DHT22;17164;48.590;11.410;2023-06-22T10:56:43;32.10;78.80
30371;DHT22;17164;48.590;11.410;2023-06-22T10:59:09;32.00;78.50
30371;DHT22;17164;48.590;11.410;2023-06-22T11:01:34;31.70;77.70
30371;DHT22;17164;48.590;11.410;2023-06-22T11:04:00;31.40;78.80
30371;DHT22;17164;48.590;11.410;2023-06-22T11:06:26;31.20;80.00
30371;DHT22;17164;48.590;11.410;2023-06-22T11:08:51;31.00;81.20
30371;DHT22;17164;48.590;11.410;2023-06-22T11:11:17;30.90;80.50
30371;DHT22;17164;48.590;11.410;2023-06-22T11:13:43;30.90;79.80
30371;DHT22;17164;48.590;11.410;2023-06-22T11:16:10;30.90;78.90
30371;DHT22;17164;48.590;11.410;2023-06-22T11:18:35;30.90;79.60
30371;DHT22;17164;48.590;11.410;2023-06-22T11:21:01;31.00;79.80
30371;DHT22;17164;48.590;11.410;2023-06-22T11:23:26;31.10;80.80
30371;DHT22;17164;48.590;11.410;2023-06-22T11:25:56;31.30;79.70
30371;DHT22;17164;48.590;11.410;2023-06-22T11:28:22;31.50;79.90
30371;DHT22;17164;48.590;11.410;2023-06-22T11:30:47;31.50;78.60
30371;DHT22;17164;48.590;11.410;2023-06-22T11:33:13;31.60;77.00
30371;DHT22;17164;48.590;11.410;2023-06-22T11:35:38;31.70;76.90
30371;DHT22;17164;48.590;11.410;2023-06-22T11:38:04;31.80;77.20
30371;DHT22;17164;48.590;11.410;2023-06-22T11:40:30;31.90;79.20
30371;DHT22;17164;48.590;11.410;2023-06-22T11:42:56;32.00;75.00
30371;DHT22;17164;48.590;11.410;2023-06-22T11:45:21;32.10;76.40
30371;DHT22;17164;48.590;11.410;2023-06-22T11:47:48;32.20;78.30
30371;DHT22;17164;48.590;11.410;2023-06-22T11:50:13;32.30;78.00
30371;DHT22;17164;48.590;11.410;2023-06-22T11:52:39;32.40;77.20
30371;DHT22;17164;48.590;11.410;2023-06-22T11:55:05;32.60;74.60
30371;DHT22;17164;48.590;11.410;2023-06-22T11:57:36;32.70;73.00
30371;DHT22;17164;48.590;11.410;2023-06-22T12:00:03;32.80;74.20
30371;DHT22;17164;48.590;11.410;2023-06-22T12:02:41;33.00;75.30
30371;DHT22;17164;48.590;11.410;2023-06-22T12:05:07;33.10;75.70
30371;DHT22;17164;48.590;11.410;2023-06-22T12:07:33;33.20;74.50
30371;DHT22;17164;48.590;11.410;2023-06-22T12:09:58;33.30;71.30
30371;DHT22;17164;48.590;11.410;2023-06-22T12:12:24;33.40;71.00
30371;DHT22;17164;48.590;11.410;2023-06-22T12:14:50;33.40;70.20
30371;DHT22;17164;48.590;11.410;2023-06-22T12:17:15;33.40;70.40
30371;DHT22;17164;48.590;11.410;2023-06-22T12:19:41;33.40;69.30
30371;DHT22;17164;48.590;11.410;2023-06-22T12:22:06;33.30;69.80
30371;DHT22;17164;48.590;11.410;2023-06-22T12:24:32;33.20;69.20
30371;DHT22;17164;48.590;11.410;2023-06-22T12:26:58;33.10;68.70
30371;DHT22;17164;48.590;11.410;2023-06-22T12:29:23;33.10;70.50
30371;DHT22;17164;48.590;11.410;2023-06-22T12:31:49;33.20;68.60
30371;DHT22;17164;48.590;11.410;2023-06-22T12:34:14;33.20;68.60
30371;DHT22;17164;48.590;11.410;2023-06-22T12:36:40;33.20;68.90
30371;DHT22;17164;48.590;11.410;2023-06-22T12:39:06;33.10;69.00
30371;DHT22;17164;48.590;11.410;2023-06-22T12:41:32;33.00;69.80
30371;DHT22;17164;48.590;11.410;2023-06-22T12:43:57;32.90;70.10
30371;DHT22;17164;48.590;11.410;2023-06-22T12:46:23;32.80;70.10
30371;DHT22;17164;48.590;11.410;2023-06-22T12:48:48;32.60;71.60
30371;DHT22;17164;48.590;11.410;2023-06-22T12:51:21;32.60;73.00
30371;DHT22;17164;48.590;11.410;2023-06-22T12:53:47;32.60;73.20
30371;DHT22;17164;48.590;11.410;2023-06-22T12:56:12;32.60;71.50
30371;DHT22;17164;48.590;11.410;2023-06-22T12:58:38;32.60;71.20
30371;DHT22;17164;48.590;11.410;2023-06-22T13:01:04;32.60;71.20
30371;DHT22;17164;48.590;11.410;2023-06-22T13:03:29;32.50;71.30
30371;DHT22;17164;48.590;11.410;2023-06-22T13:05:55;32.50;68.90
30371;DHT22;17164;48.590;11.410;2023-06-22T13:08:21;32.50;69.10
30371;DHT22;17164;48.590;11.410;2023-06-22T13:10:46;32.50;70.00
30371;DHT22;17164;48.590;11.410;2023-06-22T13:13:12;32.50;68.50
30371;DHT22;17164;48.590;11.410;2023-06-22T13:15:37;32.60;68.10
30371;DHT22;17164;48.590;11.410;2023-06-22T13:18:03;32.70;67.90
30371;DHT22;17164;48.590;11.410;2023-06-22T13:20:29;32.80;68.60
30371;DHT22;17164;48.590;11.410;2023-06-22T13:22:54;32.90;68.00
30371;DHT22;17164;48.590;11.410;2023-06-22T13:25:21;33.10;68.80
30371;DHT22;17164;48.590;11.410;2023-06-22T13:27:49;33.10;69.00
30371;DHT22;17164;48.590;11.410;2023-06-22T13:30:15;33.20;67.30
30371;DHT22;17164;48.590;11.410;2023-06-22T13:32:40;33.20;66.30
30371;DHT22;17164;48.590;11.410;2023-06-22T13:35:10;33.30;68.80
30371;DHT22;17164;48.590;11.410;2023-06-22T13:37:36;33.40;69.40
30371;DHT22;17164;48.590;11.410;2023-06-22T13:40:01;33.40;70.20
30371;DHT22;17164;48.590;11.410;2023-06-22T13:42:30;33.40;65.00
30371;DHT22;17164;48.590;11.410;2023-06-22T13:44:56;33.40;66.30
30371;DHT22;17164;48.590;11.410;2023-06-22T13:47:21;33.40;67.30
30371;DHT22;17164;48.590;11.410;2023-06-22T13:49:47;33.30;67.40
30371;DHT22;17164;48.590;11.410;2023-06-22T13:52:13;33.20;65.40
30371;DHT22;17164;48.590;11.410;2023-06-22T13:54:38;33.20;66.40
30371;DHT22;17164;48.590;11.410;2023-06-22T13:57:04;33.20;66.10
30371;DHT22;17164;48.590;11.410;2023-06-22T13:59:30;33.20;63.80
30371;DHT22;17164;48.590;11.410;2023-06-22T14:01:56;33.30;64.00
30371;DHT22;17164;48.590;11.410;2023-06-22T14:04:23;33.40;65.00
30371;DHT22;17164;48.590;11.410;2023-06-22T14:06:49;33.40;61.70
30371;DHT22;17164;48.590;11.410;2023-06-22T14:09:14;33.40;62.80
30371;DHT22;17164;48.590;11.410;2023-06-22T14:11:40;33.50;62.50
30371;DHT22;17164;48.590;11.410;2023-06-22T14:14:06;33.50;63.20
30371;DHT22;17164;48.590;11.410;2023-06-22T14:16:31;33.50;62.20
30371;DHT22;17164;48.590;11.410;2023-06-22T14:18:57;33.60;62.00
30371;DHT22;17164;48.590;11.410;2023-06-22T14:21:22;33.60;61.80
30371;DHT22;17164;48.590;11.410;2023-06-22T14:23:48;33.60;61.30
30371;DHT22;17164;48.590;11.410;2023-06-22T14:26:18;33.60;62.60
30371;DHT22;17164;48.590;11.410;2023-06-22T14:28:45;33.60;63.90
30371;DHT22;17164;48.590;11.410;2023-06-22T14:31:16;33.70;62.70
30371;DHT22;17164;48.590;11.410;2023-06-22T14:33:47;33.70;62.70
30371;DHT22;17164;48.590;11.410;2023-06-22T14:36:21;33.80;61.60
30371;DHT22;17164;48.590;11.410;2023-06-22T14:38:46;33.80;61.60
30371;DHT22;17164;48.590;11.410;2023-06-22T14:41:12;33.80;61.40
30371;DHT22;17164;48.590;11.410;2023-06-22T14:43:37;33.90;62.30
30371;DHT22;17164;48.590;11.410;2023-06-22T14:46:03;33.90;61.50
30371;DHT22;17164;48.590;11.410;2023-06-22T14:48:29;34.00;60.40
30371;DHT22;17164;48.590;11.410;2023-06-22T14:50:54;34.10;62.00
30371;DHT22;17164;48.590;11.410;2023-06-22T14:53:20;34.20;62.40
30371;DHT22;17164;48.590;11.410;2023-06-22T14:55:46;34.20;59.60
30371;DHT22;17164;48.590;11.410;2023-06-22T14:58:11;34.10;59.50
30371;DHT22;17164;48.590;11.410;2023-06-22T15:00:37;34.10;61.20
30371;DHT22;17164;48.590;11.410;2023-06-22T15:03:04;34.10;61.00
30371;DHT22;17164;48.590;11.410;2023-06-22T15:05:32;34.00;60.10
30371;DHT22;17164;48.590;11.410;2023-06-22T15:07:57;33.90;59.90
30371;DHT22;17164;48.590;11.410;2023-06-22T15:10:23;33.80;61.90
30371;DHT22;17164;48.590;11.410;2023-06-22T15:12:49;33.70;61.90
30371;DHT22;17164;48.590;11.410;2023-06-22T15:15:15;33.60;62.20
30371;DHT22;17164;48.590;11.410;2023-06-22T15:17:41;33.70;62.40
30371;DHT22;17164;48.590;11.410;2023-06-22T15:20:07;33.70;61.20
30371;DHT22;17164;48.590;11.410;2023-06-22T15:22:32;33.90;61.90
30371;DHT22;17164;48.590;11.410;2023-06-22T15:24:58;34.10;61.10